sensor_id;sensor_type;location;lat;lon;timestamp;P1;durP1;ratioP1;P2;durP2;ratioP2
49241;SDS011;35079;52.704;13.814;2023-09-30T00:07:12;3.42;;;1.10;;
49241;SDS011;35079;52.704;13.814;2023-09-30T01:33:06;11.43;;;3.08;;
49241;SDS011;35079;52.704;13.814;2023-09-30T01:38:55;11.40;;;2.80;;
49241;SDS011;35079;52.704;13.814;2023-09-30T01:44:36;13.07;;;3.20;;
49241;SDS011;35079;52.704;13.814;2023-09-30T01:47:01;9.40;;;2.67;;
49241;SDS011;35079;52.704;13.814;2023-09-30T01:49:27;10.52;;;2.60;;
49241;SDS011;35079;52.704;13.814;2023-09-30T01:51:55;10.73;;;2.70;;
49241;SDS011;35079;52.704;13.814;2023-09-30T01:54:21;8.73;;;2.40;;
49241;SDS011;35079;52.704;13.814;2023-09-30T01:56:47;10.32;;;2.58;;
49241;SDS011;35079;52.704;13.814;2023-09-30T01:59:12;11.63;;;3.25;;
49241;SDS011;35079;52.704;13.814;2023-09-30T02:01:44;10.27;;;2.55;;
49241;SDS011;35079;52.704;13.814;2023-09-30T02:04:13;10.65;;;2.72;;
49241;SDS011;35079;52.704;13.814;2023-09-30T02:06:40;12.07;;;2.60;;
49241;SDS011;35079;52.704;13.814;2023-09-30T02:09:09;9.60;;;2.40;;
49241;SDS011;35079;52.704;13.814;2023-09-30T02:11:35;9.88;;;2.58;;
49241;SDS011;35079;52.704;13.814;2023-09-30T02:14:02;8.63;;;2.58;;
49241;SDS011;35079;52.704;13.814;2023-09-30T02:16:29;8.15;;;2.63;;
49241;SDS011;35079;52.704;13.814;2023-09-30T02:18:55;9.88;;;2.50;;
49241;SDS011;35079;52.704;13.814;2023-09-30T02:21:21;9.25;;;2.70;;
49241;SDS011;35079;52.704;13.814;2023-09-30T02:23:49;6.93;;;2.20;;
49241;SDS011;35079;52.704;13.814;2023-09-30T02:36:38;7.07;;;2.95;;
49241;SDS011;35079;52.704;13.814;2023-09-30T03:32:42;7.80;;;2.60;;
49241;SDS011;35079;52.704;13.814;2023-09-30T04:05:46;13.52;;;3.17;;
49241;SDS011;35079;52.704;13.814;2023-09-30T04:08:46;11.10;;;3.25;;
49241;SDS011;35079;52.704;13.814;2023-09-30T04:11:41;17.00;;;3.58;;
49241;SDS011;35079;52.704;13.814;2023-09-30T04:17:29;9.37;;;3.33;;
49241;SDS011;35079;52.704;13.814;2023-09-30T04:20:28;15.15;;;3.47;;
49241;SDS011;35079;52.704;13.814;2023-09-30T04:25:58;13.38;;;3.30;;
49241;SDS011;35079;52.704;13.814;2023-09-30T04:31:42;11.73;;;3.28;;
49241;SDS011;35079;52.704;13.814;2023-09-30T04:34:07;14.52;;;3.42;;
49241;SDS011;35079;52.704;13.814;2023-09-30T04:36:57;13.85;;;3.80;;
49241;SDS011;35079;52.704;13.814;2023-09-30T04:39:29;15.07;;;3.10;;
49241;SDS011;35079;52.704;13.814;2023-09-30T04:42:15;8.75;;;3.10;;
49241;SDS011;35079;52.704;13.814;2023-09-30T04:44:42;18.15;;;3.90;;
49241;SDS011;35079;52.704;13.814;2023-09-30T04:47:08;12.32;;;3.65;;
49241;SDS011;35079;52.704;13.814;2023-09-30T04:53:06;16.05;;;3.42;;
49241;SDS011;35079;52.704;13.814;2023-09-30T04:56:00;13.93;;;3.28;;
49241;SDS011;35079;52.704;13.814;2023-09-30T04:59:06;13.48;;;3.03;;
49241;SDS011;35079;52.704;13.814;2023-09-30T05:01:35;12.88;;;3.75;;
49241;SDS011;35079;52.704;13.814;2023-09-30T05:08:20;11.60;;;3.63;;
49241;SDS011;35079;52.704;13.814;2023-09-30T05:10:46;17.60;;;3.30;;
49241;SDS011;35079;52.704;13.814;2023-09-30T05:21:39;13.13;;;3.72;;
49241;SDS011;35079;52.704;13.814;2023-09-30T05:24:05;12.35;;;3.67;;
49241;SDS011;35079;52.704;13.814;2023-09-30T05:26:40;14.20;;;3.78;;
49241;SDS011;35079;52.704;13.814;2023-09-30T05:29:05;16.85;;;3.40;;
49241;SDS011;35079;52.704;13.814;2023-09-30T05:32:15;10.43;;;3.50;;
49241;SDS011;35079;52.704;13.814;2023-09-30T05:34:43;13.65;;;3.47;;
49241;SDS011;35079;52.704;13.814;2023-09-30T05:37:09;13.43;;;3.67;;
49241;SDS011;35079;52.704;13.814;2023-09-30T05:39:35;16.42;;;4.30;;
49241;SDS011;35079;52.704;13.814;2023-09-30T05:42:04;17.15;;;4.20;;
49241;SDS011;35079;52.704;13.814;2023-09-30T06:29:03;10.95;;;3.95;;
49241;SDS011;35079;52.704;13.814;2023-09-30T06:31:31;12.13;;;3.88;;
49241;SDS011;35079;52.704;13.814;2023-09-30T06:33:59;14.73;;;3.95;;
49241;SDS011;35079;52.704;13.814;2023-09-30T06:36:25;17.48;;;4.65;;
49241;SDS011;35079;52.704;13.814;2023-09-30T06:38:51;15.02;;;3.45;;
49241;SDS011;35079;52.704;13.814;2023-09-30T06:41:17;13.90;;;4.00;;
49241;SDS011;35079;52.704;13.814;2023-09-30T06:43:43;14.77;;;4.05;;
49241;SDS011;35079;52.704;13.814;2023-09-30T06:46:09;16.08;;;3.92;;
49241;SDS011;35079;52.704;13.814;2023-09-30T06:48:35;15.50;;;4.25;;
49241;SDS011;35079;52.704;13.814;2023-09-30T06:51:07;8.95;;;3.50;;
49241;SDS011;35079;52.704;13.814;2023-09-30T06:53:41;15.05;;;4.28;;
49241;SDS011;35079;52.704;13.814;2023-09-30T06:56:07;13.85;;;3.67;;
49241;SDS011;35079;52.704;13.814;2023-09-30T06:58:40;16.70;;;4.07;;
49241;SDS011;35079;52.704;13.814;2023-09-30T07:01:06;17.92;;;4.10;;
49241;SDS011;35079;52.704;13.814;2023-09-30T07:03:35;21.90;;;4.28;;
49241;SDS011;35079;52.704;13.814;2023-09-30T07:12:39;15.20;;;3.72;;
49241;SDS011;35079;52.704;13.814;2023-09-30T07:19:08;15.15;;;3.78;;
49241;SDS011;35079;52.704;13.814;2023-09-30T07:24:38;12.55;;;3.40;;
49241;SDS011;35079;52.704;13.814;2023-09-30T07:31:06;18.42;;;3.45;;
49241;SDS011;35079;52.704;13.814;2023-09-30T08:20:47;13.68;;;3.60;;
49241;SDS011;35079;52.704;13.814;2023-09-30T08:23:59;18.02;;;3.70;;
49241;SDS011;35079;52.704;13.814;2023-09-30T08:26:28;11.98;;;3.22;;
49241;SDS011;35079;52.704;13.814;2023-09-30T08:36:19;15.27;;;3.58;;
49241;SDS011;35079;52.704;13.814;2023-09-30T08:56:06;12.73;;;3.33;;
49241;SDS011;35079;52.704;13.814;2023-09-30T08:58:58;11.80;;;3.17;;
49241;SDS011;35079;52.704;13.814;2023-09-30T09:08:32;13.52;;;3.53;;
49241;SDS011;35079;52.704;13.814;2023-09-30T09:14:41;10.73;;;3.03;;
49241;SDS011;35079;52.704;13.814;2023-09-30T09:24:37;8.50;;;3.03;;
49241;SDS011;35079;52.704;13.814;2023-09-30T09:27:13;10.38;;;3.00;;
49241;SDS011;35079;52.704;13.814;2023-09-30T09:29:42;11.52;;;2.78;;
49241;SDS011;35079;52.704;13.814;2023-09-30T09:32:13;10.52;;;2.80;;
49241;SDS011;35079;52.704;13.814;2023-09-30T09:34:41;17.02;;;3.33;;
49241;SDS011;35079;52.704;13.814;2023-09-30T09:39:56;12.82;;;3.17;;
49241;SDS011;35079;52.704;13.814;2023-09-30T09:42:29;11.48;;;2.90;;
49241;SDS011;35079;52.704;13.814;2023-09-30T09:48:28;12.93;;;3.42;;
49241;SDS011;35079;52.704;13.814;2023-09-30T09:50:54;10.15;;;2.80;;
49241;SDS011;35079;52.704;13.814;2023-09-30T09:53:20;10.82;;;2.90;;
49241;SDS011;35079;52.704;13.814;2023-09-30T09:55:46;12.25;;;3.03;;
49241;SDS011;35079;52.704;13.814;2023-09-30T09:58:13;11.85;;;2.35;;
49241;SDS011;35079;52.704;13.814;2023-09-30T10:00:42;12.40;;;2.90;;
49241;SDS011;35079;52.704;13.814;2023-09-30T10:03:26;12.30;;;3.00;;
49241;SDS011;35079;52.704;13.814;2023-09-30T10:06:03;15.35;;;3.00;;
49241;SDS011;35079;52.704;13.814;2023-09-30T10:08:38;16.27;;;2.75;;
49241;SDS011;35079;52.704;13.814;2023-09-30T10:11:16;8.88;;;2.47;;
49241;SDS011;35079;52.704;13.814;2023-09-30T10:13:56;9.10;;;2.58;;
49241;SDS011;35079;52.704;13.814;2023-09-30T10:19:15;13.50;;;2.70;;
49241;SDS011;35079;52.704;13.814;2023-09-30T10:24:42;7.90;;;2.25;;
49241;SDS011;35079;52.704;13.814;2023-09-30T10:29:59;12.23;;;2.60;;
49241;SDS011;35079;52.704;13.814;2023-09-30T11:36:39;6.93;;;2.15;;
49241;SDS011;35079;52.704;13.814;2023-09-30T11:39:20;10.27;;;2.25;;
49241;SDS011;35079;52.704;13.814;2023-09-30T11:41:48;9.25;;;2.10;;
49241;SDS011;35079;52.704;13.814;2023-09-30T11:44:13;9.23;;;2.30;;
49241;SDS011;35079;52.704;13.814;2023-09-30T11:46:53;8.65;;;2.08;;
49241;SDS011;35079;52.704;13.814;2023-09-30T11:49:24;9.60;;;2.53;;
49241;SDS011;35079;52.704;13.814;2023-09-30T11:51:50;11.27;;;2.20;;
49241;SDS011;35079;52.704;13.814;2023-09-30T11:58:01;9.82;;;2.17;;
49241;SDS011;35079;52.704;13.814;2023-09-30T12:00:27;7.82;;;2.38;;
49241;SDS011;35079;52.704;13.814;2023-09-30T12:02:54;9.15;;;2.55;;
49241;SDS011;35079;52.704;13.814;2023-09-30T12:05:19;9.07;;;2.00;;
49241;SDS011;35079;52.704;13.814;2023-09-30T12:07:47;9.80;;;2.60;;
49241;SDS011;35079;52.704;13.814;2023-09-30T12:10:13;10.25;;;2.10;;
49241;SDS011;35079;52.704;13.814;2023-09-30T12:12:40;7.50;;;2.20;;
49241;SDS011;35079;52.704;13.814;2023-09-30T12:15:05;6.93;;;2.15;;
49241;SDS011;35079;52.704;13.814;2023-09-30T12:17:34;7.13;;;1.75;;
49241;SDS011;35079;52.704;13.814;2023-09-30T12:23:42;8.43;;;2.05;;
49241;SDS011;35079;52.704;13.814;2023-09-30T12:26:50;8.45;;;2.17;;
49241;SDS011;35079;52.704;13.814;2023-09-30T12:29:22;9.60;;;2.15;;
49241;SDS011;35079;52.704;13.814;2023-09-30T12:31:57;6.15;;;1.65;;
49241;SDS011;35079;52.704;13.814;2023-09-30T12:34:23;15.52;;;2.20;;
49241;SDS011;35079;52.704;13.814;2023-09-30T12:36:51;5.25;;;1.80;;
49241;SDS011;35079;52.704;13.814;2023-09-30T12:39:17;8.95;;;1.77;;
49241;SDS011;35079;52.704;13.814;2023-09-30T12:41:48;7.28;;;1.60;;
49241;SDS011;35079;52.704;13.814;2023-09-30T12:44:14;10.35;;;2.45;;
49241;SDS011;35079;52.704;13.814;2023-09-30T12:46:40;8.45;;;2.13;;
49241;SDS011;35079;52.704;13.814;2023-09-30T12:49:09;7.35;;;2.03;;
49241;SDS011;35079;52.704;13.814;2023-09-30T12:51:35;7.90;;;2.15;;
49241;SDS011;35079;52.704;13.814;2023-09-30T12:54:16;8.30;;;2.35;;
49241;SDS011;35079;52.704;13.814;2023-09-30T12:56:43;9.75;;;2.10;;
49241;SDS011;35079;52.704;13.814;2023-09-30T12:59:09;6.85;;;1.98;;
49241;SDS011;35079;52.704;13.814;2023-09-30T13:01:35;8.70;;;2.05;;
49241;SDS011;35079;52.704;13.814;2023-09-30T13:04:04;7.88;;;1.77;;
49241;SDS011;35079;52.704;13.814;2023-09-30T13:06:33;11.60;;;2.10;;
49241;SDS011;35079;52.704;13.814;2023-09-30T13:09:06;10.52;;;2.00;;
49241;SDS011;35079;52.704;13.814;2023-09-30T13:11:33;5.85;;;1.90;;
49241;SDS011;35079;52.704;13.814;2023-09-30T13:14:02;6.95;;;2.22;;
49241;SDS011;35079;52.704;13.814;2023-09-30T13:16:28;11.38;;;2.08;;
49241;SDS011;35079;52.704;13.814;2023-09-30T13:18:54;6.25;;;1.50;;
49241;SDS011;35079;52.704;13.814;2023-09-30T13:21:20;6.88;;;1.70;;
49241;SDS011;35079;52.704;13.814;2023-09-30T13:23:45;6.70;;;1.80;;
49241;SDS011;35079;52.704;13.814;2023-09-30T13:26:11;9.25;;;2.00;;
49241;SDS011;35079;52.704;13.814;2023-09-30T13:28:36;6.78;;;2.03;;
49241;SDS011;35079;52.704;13.814;2023-09-30T13:31:02;7.95;;;1.83;;
49241;SDS011;35079;52.704;13.814;2023-09-30T13:33:28;5.32;;;1.70;;
49241;SDS011;35079;52.704;13.814;2023-09-30T13:35:53;8.20;;;1.83;;
49241;SDS011;35079;52.704;13.814;2023-09-30T13:38:20;6.45;;;1.67;;
49241;SDS011;35079;52.704;13.814;2023-09-30T13:40:46;6.85;;;2.10;;
49241;SDS011;35079;52.704;13.814;2023-09-30T13:43:11;9.82;;;1.92;;
49241;SDS011;35079;52.704;13.814;2023-09-30T13:45:37;5.68;;;1.88;;
49241;SDS011;35079;52.704;13.814;2023-09-30T13:48:03;5.78;;;1.98;;
49241;SDS011;35079;52.704;13.814;2023-09-30T13:50:29;7.00;;;1.63;;
49241;SDS011;35079;52.704;13.814;2023-09-30T13:52:55;6.13;;;1.60;;
49241;SDS011;35079;52.704;13.814;2023-09-30T13:55:20;7.15;;;1.60;;
49241;SDS011;35079;52.704;13.814;2023-09-30T13:57:47;5.85;;;1.65;;
49241;SDS011;35079;52.704;13.814;2023-09-30T14:00:13;3.95;;;1.52;;
49241;SDS011;35079;52.704;13.814;2023-09-30T14:22:55;10.88;;;2.00;;
49241;SDS011;35079;52.704;13.814;2023-09-30T15:17:12;6.88;;;1.67;;
49241;SDS011;35079;52.704;13.814;2023-09-30T16:30:58;4.22;;;1.40;;
49241;SDS011;35079;52.704;13.814;2023-09-30T16:37:24;3.08;;;1.23;;
49241;SDS011;35079;52.704;13.814;2023-09-30T16:50:26;7.07;;;1.42;;
49241;SDS011;35079;52.704;13.814;2023-09-30T16:52:53;4.45;;;1.48;;
49241;SDS011;35079;52.704;13.814;2023-09-30T16:55:19;7.20;;;1.63;;
49241;SDS011;35079;52.704;13.814;2023-09-30T16:57:45;7.57;;;1.65;;
49241;SDS011;35079;52.704;13.814;2023-09-30T17:00:33;6.60;;;1.88;;
49241;SDS011;35079;52.704;13.814;2023-09-30T17:02:58;6.05;;;1.40;;
49241;SDS011;35079;52.704;13.814;2023-09-30T17:05:24;9.50;;;1.55;;
49241;SDS011;35079;52.704;13.814;2023-09-30T17:07:50;6.00;;;1.83;;
49241;SDS011;35079;52.704;13.814;2023-09-30T17:10:15;6.07;;;1.60;;
49241;SDS011;35079;52.704;13.814;2023-09-30T17:12:41;5.70;;;1.60;;
49241;SDS011;35079;52.704;13.814;2023-09-30T17:15:07;5.50;;;1.20;;
49241;SDS011;35079;52.704;13.814;2023-09-30T17:17:37;4.78;;;1.60;;
49241;SDS011;35079;52.704;13.814;2023-09-30T17:20:02;7.43;;;1.58;;
49241;SDS011;35079;52.704;13.814;2023-09-30T17:22:31;5.20;;;1.60;;
49241;SDS011;35079;52.704;13.814;2023-09-30T17:24:56;4.97;;;1.60;;
49241;SDS011;35079;52.704;13.814;2023-09-30T17:28:08;7.25;;;1.52;;
49241;SDS011;35079;52.704;13.814;2023-09-30T17:30:17;5.80;;;1.60;;
49241;SDS011;35079;52.704;13.814;2023-09-30T17:32:46;4.05;;;1.35;;
49241;SDS011;35079;52.704;13.814;2023-09-30T17:35:13;5.15;;;1.40;;
49241;SDS011;35079;52.704;13.814;2023-09-30T17:47:18;4.75;;;1.70;;
49241;SDS011;35079;52.704;13.814;2023-09-30T19:00:28;8.10;;;2.20;;
49241;SDS011;35079;52.704;13.814;2023-09-30T19:03:08;5.60;;;2.00;;
49241;SDS011;35079;52.704;13.814;2023-09-30T19:06:01;7.43;;;2.17;;
49241;SDS011;35079;52.704;13.814;2023-09-30T19:09:02;8.05;;;2.22;;
49241;SDS011;35079;52.704;13.814;2023-09-30T19:11:32;5.72;;;2.08;;
49241;SDS011;35079;52.704;13.814;2023-09-30T19:14:29;5.22;;;1.98;;
49241;SDS011;35079;52.704;13.814;2023-09-30T19:20:17;8.50;;;2.40;;
49241;SDS011;35079;52.704;13.814;2023-09-30T19:22:45;8.55;;;2.75;;
49241;SDS011;35079;52.704;13.814;2023-09-30T19:25:46;11.18;;;2.63;;
49241;SDS011;35079;52.704;13.814;2023-09-30T19:31:26;9.75;;;3.10;;
49241;SDS011;35079;52.704;13.814;2023-09-30T19:34:08;6.53;;;2.00;;
49241;SDS011;35079;52.704;13.814;2023-09-30T19:36:42;6.88;;;2.60;;
49241;SDS011;35079;52.704;13.814;2023-09-30T19:40:14;8.98;;;2.60;;
49241;SDS011;35079;52.704;13.814;2023-09-30T19:42:28;9.52;;;2.58;;
49241;SDS011;35079;52.704;13.814;2023-09-30T19:45:12;8.40;;;2.55;;
49241;SDS011;35079;52.704;13.814;2023-09-30T19:47:38;8.48;;;2.70;;
49241;SDS011;35079;52.704;13.814;2023-09-30T19:50:22;10.13;;;3.25;;
49241;SDS011;35079;52.704;13.814;2023-09-30T19:52:48;11.57;;;2.40;;
49241;SDS011;35079;52.704;13.814;2023-09-30T19:55:16;8.20;;;2.65;;
49241;SDS011;35079;52.704;13.814;2023-09-30T19:57:43;11.93;;;3.00;;
49241;SDS011;35079;52.704;13.814;2023-09-30T20:00:09;8.75;;;2.92;;
49241;SDS011;35079;52.704;13.814;2023-09-30T20:02:41;9.30;;;2.60;;
49241;SDS011;35079;52.704;13.814;2023-09-30T20:05:07;4.68;;;2.30;;
49241;SDS011;35079;52.704;13.814;2023-09-30T20:07:34;10.70;;;3.30;;
49241;SDS011;35079;52.704;13.814;2023-09-30T20:10:00;6.82;;;2.42;;
49241;SDS011;35079;52.704;13.814;2023-09-30T20:12:29;10.23;;;3.00;;
49241;SDS011;35079;52.704;13.814;2023-09-30T20:14:56;8.48;;;2.60;;
49241;SDS011;35079;52.704;13.814;2023-09-30T20:17:22;13.07;;;3.20;;
49241;SDS011;35079;52.704;13.814;2023-09-30T20:19:48;8.00;;;2.55;;
49241;SDS011;35079;52.704;13.814;2023-09-30T20:22:14;10.60;;;2.95;;
49241;SDS011;35079;52.704;13.814;2023-09-30T20:24:40;8.80;;;2.80;;
49241;SDS011;35079;52.704;13.814;2023-09-30T20:27:08;10.25;;;2.80;;
49241;SDS011;35079;52.704;13.814;2023-09-30T20:29:35;6.63;;;2.47;;
49241;SDS011;35079;52.704;13.814;2023-09-30T20:32:00;4.28;;;2.55;;
49241;SDS011;35079;52.704;13.814;2023-09-30T20:34:27;9.40;;;2.80;;
49241;SDS011;35079;52.704;13.814;2023-09-30T20:36:53;7.13;;;2.65;;
49241;SDS011;35079;52.704;13.814;2023-09-30T20:39:19;7.25;;;3.05;;
49241;SDS011;35079;52.704;13.814;2023-09-30T20:41:46;9.98;;;3.30;;
49241;SDS011;35079;52.704;13.814;2023-09-30T20:44:14;8.50;;;2.88;;
49241;SDS011;35079;52.704;13.814;2023-09-30T20:46:40;8.50;;;2.60;;
49241;SDS011;35079;52.704;13.814;2023-09-30T20:49:08;9.50;;;2.75;;
49241;SDS011;35079;52.704;13.814;2023-09-30T20:51:34;7.20;;;2.85;;
49241;SDS011;35079;52.704;13.814;2023-09-30T20:54:00;5.35;;;3.00;;
49241;SDS011;35079;52.704;13.814;2023-09-30T20:56:26;5.22;;;2.85;;
49241;SDS011;35079;52.704;13.814;2023-09-30T20:58:52;7.18;;;2.88;;
49241;SDS011;35079;52.704;13.814;2023-09-30T21:01:18;8.50;;;3.03;;
49241;SDS011;35079;52.704;13.814;2023-09-30T21:03:44;11.57;;;3.17;;
49241;SDS011;35079;52.704;13.814;2023-09-30T21:06:10;9.88;;;3.08;;
49241;SDS011;35079;52.704;13.814;2023-09-30T21:08:36;9.88;;;3.30;;
49241;SDS011;35079;52.704;13.814;2023-09-30T21:11:06;4.82;;;2.72;;
49241;SDS011;35079;52.704;13.814;2023-09-30T21:13:32;8.32;;;3.30;;
49241;SDS011;35079;52.704;13.814;2023-09-30T21:15:59;8.98;;;3.03;;
49241;SDS011;35079;52.704;13.814;2023-09-30T21:18:27;6.32;;;3.03;;
49241;SDS011;35079;52.704;13.814;2023-09-30T21:20:52;8.18;;;3.55;;
49241;SDS011;35079;52.704;13.814;2023-09-30T21:23:18;11.65;;;3.35;;
49241;SDS011;35079;52.704;13.814;2023-09-30T21:25:44;10.93;;;3.30;;
49241;SDS011;35079;52.704;13.814;2023-09-30T21:28:09;8.48;;;3.38;;
49241;SDS011;35079;52.704;13.814;2023-09-30T21:30:36;10.93;;;3.67;;
49241;SDS011;35079;52.704;13.814;2023-09-30T21:33:03;9.93;;;3.40;;
49241;SDS011;35079;52.704;13.814;2023-09-30T21:35:29;9.15;;;2.97;;
49241;SDS011;35079;52.704;13.814;2023-09-30T21:37:55;5.90;;;3.03;;
49241;SDS011;35079;52.704;13.814;2023-09-30T21:40:20;9.65;;;3.70;;
49241;SDS011;35079;52.704;13.814;2023-09-30T21:42:46;7.88;;;3.72;;
49241;SDS011;35079;52.704;13.814;2023-09-30T21:45:12;13.27;;;4.00;;
49241;SDS011;35079;52.704;13.814;2023-09-30T21:47:38;10.50;;;3.25;;
49241;SDS011;35079;52.704;13.814;2023-09-30T21:50:04;8.85;;;3.58;;
49241;SDS011;35079;52.704;13.814;2023-09-30T21:52:30;7.97;;;3.65;;
49241;SDS011;35079;52.704;13.814;2023-09-30T21:54:56;11.02;;;3.50;;
49241;SDS011;35079;52.704;13.814;2023-09-30T21:57:21;9.38;;;3.50;;
49241;SDS011;35079;52.704;13.814;2023-09-30T21:59:47;8.55;;;3.20;;
49241;SDS011;35079;52.704;13.814;2023-09-30T22:02:17;7.90;;;3.47;;
49241;SDS011;35079;52.704;13.814;2023-09-30T22:04:43;7.63;;;3.38;;
49241;SDS011;35079;52.704;13.814;2023-09-30T22:07:09;10.00;;;3.63;;
49241;SDS011;35079;52.704;13.814;2023-09-30T22:09:35;11.60;;;3.33;;
49241;SDS011;35079;52.704;13.814;2023-09-30T22:12:01;10.77;;;3.15;;
49241;SDS011;35079;52.704;13.814;2023-09-30T22:14:27;6.32;;;3.30;;
49241;SDS011;35079;52.704;13.814;2023-09-30T22:16:53;9.77;;;3.42;;
49241;SDS011;35079;52.704;13.814;2023-09-30T22:19:18;10.40;;;3.05;;
49241;SDS011;35079;52.704;13.814;2023-09-30T22:21:46;4.90;;;2.97;;
49241;SDS011;35079;52.704;13.814;2023-09-30T22:24:12;9.00;;;3.30;;
49241;SDS011;35079;52.704;13.814;2023-09-30T22:26:40;10.35;;;3.35;;
49241;SDS011;35079;52.704;13.814;2023-09-30T22:29:06;12.50;;;3.65;;
49241;SDS011;35079;52.704;13.814;2023-09-30T22:31:33;6.65;;;3.13;;
49241;SDS011;35079;52.704;13.814;2023-09-30T22:34:01;6.35;;;3.05;;
49241;SDS011;35079;52.704;13.814;2023-09-30T22:36:27;10.57;;;3.70;;
49241;SDS011;35079;52.704;13.814;2023-09-30T22:38:52;10.05;;;3.53;;
49241;SDS011;35079;52.704;13.814;2023-09-30T22:41:18;9.57;;;3.78;;
49241;SDS011;35079;52.704;13.814;2023-09-30T22:43:44;11.82;;;3.47;;
49241;SDS011;35079;52.704;13.814;2023-09-30T22:46:10;10.20;;;4.00;;
49241;SDS011;35079;52.704;13.814;2023-09-30T22:48:35;11.63;;;3.80;;
49241;SDS011;35079;52.704;13.814;2023-09-30T22:51:01;7.15;;;3.58;;
49241;SDS011;35079;52.704;13.814;2023-09-30T22:53:27;10.30;;;3.63;;
49241;SDS011;35079;52.704;13.814;2023-09-30T22:55:55;7.50;;;3.50;;
49241;SDS011;35079;52.704;13.814;2023-09-30T22:58:20;8.43;;;3.50;;
49241;SDS011;35079;52.704;13.814;2023-09-30T23:00:46;9.30;;;3.63;;
49241;SDS011;35079;52.704;13.814;2023-09-30T23:03:12;7.75;;;3.53;;
49241;SDS011;35079;52.704;13.814;2023-09-30T23:05:40;10.00;;;3.55;;
49241;SDS011;35079;52.704;13.814;2023-09-30T23:08:06;7.90;;;3.50;;
49241;SDS011;35079;52.704;13.814;2023-09-30T23:10:31;8.63;;;3.70;;
49241;SDS011;35079;52.704;13.814;2023-09-30T23:12:58;10.50;;;3.65;;
49241;SDS011;35079;52.704;13.814;2023-09-30T23:15:24;11.85;;;3.65;;
49241;SDS011;35079;52.704;13.814;2023-09-30T23:18:12;13.77;;;4.20;;
49241;SDS011;35079;52.704;13.814;2023-09-30T23:20:52;14.05;;;3.78;;
49241;SDS011;35079;52.704;13.814;2023-09-30T23:23:18;10.00;;;3.58;;
49241;SDS011;35079;52.704;13.814;2023-09-30T23:25:44;9.77;;;3.78;;
49241;SDS011;35079;52.704;13.814;2023-09-30T23:28:11;9.27;;;3.38;;
49241;SDS011;35079;52.704;13.814;2023-09-30T23:31:14;9.52;;;3.67;;
49241;SDS011;35079;52.704;13.814;2023-09-30T23:33:43;12.73;;;4.07;;
49241;SDS011;35079;52.704;13.814;2023-09-30T23:39:02;9.48;;;3.47;;
49241;SDS011;35079;52.704;13.814;2023-09-30T23:47:29;7.68;;;3.47;;
49241;SDS011;35079;52.704;13.814;2023-09-30T23:50:02;6.90;;;3.17;;
49241;SDS011;35079;52.704;13.814;2023-09-30T23:52:53;9.48;;;3.50;;
49241;SDS011;35079;52.704;13.814;2023-09-30T23:55:19;7.88;;;3.47;;
